Time;durP1;ratioP1;P1;durP2;ratioP2;P2;SDS_P1;SDS_P2;PMS_P1;PMS_P2;Temp;Humidity;BMP_temperature;BMP_pressure;BME280_temperature;BME280_humidity;BME280_pressure;Samples;Min_cycle;Max_cycle;Signal;HPM_P1;HPM_P2
2022/01/31 00:01:44;;;;;;;37.57;17.10;;;;;;;-2.16;67.39;96874.91;5015978;28;20072;-71
2022/01/31 00:04:10;;;;;;;31.73;14.40;;;;;;;-2.16;67.46;96881.06;5015781;28;20058;-73
2022/01/31 00:06:36;;;;;;;18.20;9.27;;;;;;;-2.18;67.59;96875.19;5006688;28;20132;-73
2022/01/31 00:09:03;;;;;;;18.17;8.50;;;;;;;-2.22;67.78;96873.28;5032064;28;20053;-72
2022/01/31 00:11:30;;;;;;;17.75;8.13;;;;;;;-2.23;67.71;96871.69;5031866;28;20551;-73
2022/01/31 00:14:09;;;;;;;14.10;7.65;;;;;;;-2.23;67.71;96877.03;5032079;28;20049;-73
2022/01/31 00:16:36;;;;;;;19.23;7.83;;;;;;;-2.21;67.68;96873.00;5026717;28;20098;-73
2022/01/31 00:19:02;;;;;;;16.30;7.60;;;;;;;-2.19;67.59;96864.72;5014059;28;20050;-73
2022/01/31 00:21:29;;;;;;;17.97;7.73;;;;;;;-2.17;67.61;96863.41;5033786;28;20088;-74
2022/01/31 00:23:55;;;;;;;16.63;8.05;;;;;;;-2.12;67.31;96859.91;5027740;28;20052;-73
2022/01/31 00:26:23;;;;;;;22.87;8.57;;;;;;;-2.06;67.25;96850.84;5029142;28;20053;-72
2022/01/31 00:28:49;;;;;;;;;;;;;;;-2.08;67.46;96866.38;5028042;28;20042;-73
2022/01/31 00:31:15;;;;;;;20.07;7.80;;;;;;;-2.11;67.35;96863.41;5039057;28;19925;-72
2022/01/31 00:33:42;;;;;;;15.20;7.77;;;;;;;-2.10;67.23;96854.31;4997654;28;20049;-74
2022/01/31 00:36:08;;;;;;;19.27;8.07;;;;;;;-2.09;67.39;96854.06;5026654;28;20041;-73
2022/01/31 00:38:34;;;;;;;18.17;8.43;;;;;;;-2.06;67.33;96858.06;5017814;28;20104;-72
2022/01/31 00:41:00;;;;;;;18.97;8.30;;;;;;;-2.08;67.32;96855.66;5025354;28;20056;-72
2022/01/31 00:43:28;;;;;;;19.93;8.37;;;;;;;-2.06;67.32;96848.16;5028275;28;20088;-72
2022/01/31 00:45:58;;;;;;;17.05;8.30;;;;;;;-2.01;67.24;96855.41;5014745;28;20058;-72
2022/01/31 00:48:26;;;;;;;18.13;8.20;;;;;;;-2.03;67.26;96838.78;5000676;28;20041;-72
2022/01/31 00:50:52;;;;;;;20.67;8.57;;;;;;;-2.03;67.31;96847.63;5014060;28;20543;-70
2022/01/31 00:53:18;;;;;;;17.60;8.03;;;;;;;-2.03;67.34;96842.25;5014493;28;20057;-71
2022/01/31 00:55:44;;;;;;;18.77;8.97;;;;;;;-2.05;67.23;96840.91;5016094;28;20053;-69
2022/01/31 00:58:11;;;;;;;18.67;8.50;;;;;;;-2.04;67.37;96839.84;5016852;28;20421;-71
2022/01/31 01:00:38;;;;;;;21.57;9.27;;;;;;;-2.08;67.44;96834.22;5013200;28;20060;-71
2022/01/31 01:03:05;;;;;;;19.23;8.48;;;;;;;-2.08;67.51;96834.22;5014927;28;20474;-72
2022/01/31 01:05:31;;;;;;;22.20;10.20;;;;;;;-2.04;67.53;96832.63;4981109;28;20068;-71
2022/01/31 01:07:57;;;;;;;23.90;9.80;;;;;;;-2.00;67.39;96839.06;5012713;28;20053;-72
2022/01/31 01:10:23;;;;;;;20.43;9.70;;;;;;;-2.02;67.39;96843.09;5013078;28;20058;-72
2022/01/31 01:12:50;;;;;;;18.50;9.03;;;;;;;-2.02;67.48;96835.06;4996603;28;20141;-72
2022/01/31 01:15:16;;;;;;;20.90;9.23;;;;;;;-2.02;67.43;96830.47;5019271;28;20501;-72
2022/01/31 01:17:45;;;;;;;19.27;9.20;;;;;;;-2.03;67.42;96826.19;5030406;28;20537;-70
2022/01/31 01:20:12;;;;;;;19.37;8.50;;;;;;;-2.02;67.20;96827.81;5015372;28;20054;-74
2022/01/31 01:22:39;;;;;;;19.85;9.85;;;;;;;-2.05;67.36;96828.34;5032301;28;20457;-72
2022/01/31 01:25:07;;;;;;;26.73;9.40;;;;;;;-2.11;67.32;96841.97;5017698;28;20045;-70
2022/01/31 01:27:33;;;;;;;24.17;11.00;;;;;;;-2.08;67.48;96822.69;5013012;28;20092;-72
2022/01/31 01:29:59;;;;;;;28.63;11.77;;;;;;;-2.14;67.54;96824.56;5008970;28;20108;-72
2022/01/31 01:32:30;;;;;;;25.92;11.90;;;;;;;-2.07;67.46;96830.47;5008475;28;20052;-73
2022/01/31 01:35:02;;;;;;;25.43;11.37;;;;;;;-2.06;67.50;96837.44;5022550;28;20042;-72
2022/01/31 01:37:29;;;;;;;22.20;11.17;;;;;;;-2.07;67.57;96837.69;5017744;28;20050;-71
2022/01/31 01:39:55;;;;;;;24.17;12.17;;;;;;;-2.11;67.60;96826.72;5016650;28;20422;-73
2022/01/31 01:42:25;;;;;;;22.53;11.17;;;;;;;-2.04;67.49;96835.31;5020954;28;20050;-73
2022/01/31 01:44:51;;;;;;;23.73;10.20;;;;;;;-2.02;67.64;96833.16;5024525;28;20052;-71
2022/01/31 01:47:24;;;;;;;21.38;9.23;;;;;;;-2.01;67.46;96845.47;5013547;28;20050;-72
2022/01/31 01:49:52;;;;;;;21.80;9.20;;;;;;;-2.03;67.75;96842.25;5014653;28;20057;-74
2022/01/31 01:52:23;;;;;;;22.23;9.80;;;;;;;-2.04;67.54;96837.97;5031786;28;20191;-74
2022/01/31 01:54:49;;;;;;;25.27;10.83;;;;;;;-1.97;67.58;96847.63;5021010;28;20108;-73
2022/01/31 01:57:19;;;;;;;27.23;9.70;;;;;;;-1.97;67.68;96843.09;5029697;28;20461;-73
2022/01/31 01:59:54;;;;;;;20.93;9.97;;;;;;;-1.96;67.62;96843.88;5031841;28;20073;-73
2022/01/31 02:02:41;;;;;;;23.83;9.67;;;;;;;-1.94;67.66;96844.44;5018061;28;20387;-73
2022/01/31 02:05:11;;;;;;;20.87;9.57;;;;;;;-1.93;67.50;96835.31;5011126;28;20063;-73
2022/01/31 02:07:45;;;;;;;21.77;9.60;;;;;;;-1.88;67.45;96835.31;5005946;28;20525;-73
2022/01/31 02:10:16;;;;;;;27.90;10.20;;;;;;;-1.89;67.52;96837.19;5010121;28;20054;-73
2022/01/31 02:13:10;;;;;;;23.03;9.77;;;;;;;-1.89;67.58;96831.81;5029865;28;20053;-72
2022/01/31 02:16:09;;;;;;;23.70;9.33;;;;;;;-1.89;67.71;96834.50;4978905;28;20061;-73
2022/01/31 02:18:50;;;;;;;;;;;;;;;-1.91;67.82;96836.66;4980966;28;20057;-73
2022/01/31 02:21:50;;;;;;;20.35;8.82;;;;;;;-1.95;67.77;96830.22;4996271;28;20016;-73
2022/01/31 02:24:54;;;;;;;21.87;9.33;;;;;;;-1.94;67.85;96837.19;4996531;28;20057;-73
2022/01/31 02:27:42;;;;;;;21.17;9.10;;;;;;;-1.95;67.81;96832.91;4965169;28;20414;-73
2022/01/31 02:30:16;;;;;;;27.10;9.57;;;;;;;-1.91;67.68;96839.34;5007197;28;20060;-74
2022/01/31 02:32:46;;;;;;;21.60;10.03;;;;;;;-1.90;67.86;96837.47;5030917;28;20518;-74
2022/01/31 02:35:12;;;;;;;24.47;9.97;;;;;;;-1.87;67.84;96836.94;5027184;28;20136;-73
2022/01/31 02:37:40;;;;;;;23.00;9.90;;;;;;;-1.86;67.94;96833.19;5023999;28;20136;-74
2022/01/31 02:40:40;;;;;;;27.50;9.90;;;;;;;-1.98;67.70;96805.84;4990111;28;20518;-73
2022/01/31 02:43:06;;;;;;;25.83;9.90;;;;;;;-1.81;67.68;96833.19;5012801;28;20049;-73
2022/01/31 02:45:33;;;;;;;23.63;9.67;;;;;;;-1.78;67.68;96834.53;5018847;28;20132;-72
2022/01/31 02:48:03;;;;;;;23.52;10.00;;;;;;;-1.80;67.80;96837.47;5030954;28;20053;-74
2022/01/31 02:50:32;;;;;;;21.23;9.60;;;;;;;-1.88;67.76;96830.75;5025365;28;20057;-74
2022/01/31 02:53:11;;;;;;;23.23;9.90;;;;;;;-1.84;67.90;96841.75;5017674;28;20065;-74
2022/01/31 02:55:40;;;;;;;23.27;10.07;;;;;;;-2.02;67.74;96810.94;5010498;28;20045;-73
2022/01/31 02:58:06;;;;;;;25.90;10.03;;;;;;;-1.87;67.81;96827.03;5025367;28;20060;-73
2022/01/31 03:00:32;;;;;;;25.13;9.67;;;;;;;-1.84;68.05;96832.94;5029011;28;20041;-73
2022/01/31 03:03:14;;;;;;;26.77;11.30;;;;;;;-1.81;67.78;96832.38;5023350;28;20165;-72
2022/01/31 03:05:41;;;;;;;27.25;10.20;;;;;;;-1.80;67.82;96832.09;5019372;28;20057;-71
2022/01/31 03:08:11;;;;;;;21.13;9.90;;;;;;;-1.83;67.85;96829.97;5027305;28;20073;-73
2022/01/31 03:10:38;;;;;;;27.67;10.87;;;;;;;-1.83;67.94;96834.53;5025151;28;20049;-73
2022/01/31 03:13:05;;;;;;;26.07;11.03;;;;;;;-1.82;68.02;96831.56;4978869;28;20061;-72
2022/01/31 03:15:36;;;;;;;28.40;11.20;;;;;;;-1.77;67.98;96839.63;5010742;28;20129;-72
2022/01/31 03:18:27;;;;;;;25.77;10.57;;;;;;;-1.75;67.75;96839.34;5011520;28;20065;-72
2022/01/31 03:20:55;;;;;;;24.70;10.50;;;;;;;-1.92;67.68;96816.28;5025501;28;20511;-72
2022/01/31 03:23:23;;;;;;;23.17;10.43;;;;;;;-1.74;67.74;96840.94;5026704;28;20053;-74
2022/01/31 03:25:49;;;;;;;24.60;10.60;;;;;;;-1.76;67.79;96835.88;5011821;28;20056;-74
2022/01/31 03:28:17;;;;;;;24.63;10.80;;;;;;;-1.80;68.00;96842.03;4985371;28;20095;-73
2022/01/31 03:30:43;;;;;;;26.57;10.80;;;;;;;-1.79;67.75;96849.00;5028854;28;20064;-73
2022/01/31 03:33:09;;;;;;;25.53;10.20;;;;;;;-1.77;68.03;96844.16;5028291;28;20060;-73
2022/01/31 03:35:35;;;;;;;26.27;11.03;;;;;;;-1.71;67.82;96843.13;5010958;28;20138;-73
2022/01/31 03:38:02;;;;;;;25.13;11.23;;;;;;;-1.69;67.94;96842.84;5029436;28;20511;-73
2022/01/31 03:40:30;;;;;;;23.38;10.40;;;;;;;-1.68;67.69;96839.91;5028049;28;20050;-73
2022/01/31 03:42:56;;;;;;;25.77;11.05;;;;;;;-1.68;67.83;96847.13;5024209;28;20407;-71
2022/01/31 03:45:23;;;;;;;26.33;10.13;;;;;;;-1.79;67.76;96825.69;4978472;28;20046;-72
2022/01/31 03:48:06;;;;;;;26.90;10.53;;;;;;;-1.67;67.86;96841.50;5008402;28;20235;-73
2022/01/31 03:50:32;;;;;;;;;;;;;;;-1.64;67.79;96838.28;5025828;28;20058;-73
2022/01/31 03:52:58;;;;;;;27.57;11.17;;;;;;;-1.68;67.98;96842.56;4993129;28;20424;-73
2022/01/31 03:55:27;;;;;;;25.17;10.53;;;;;;;-1.64;67.89;96829.44;5024890;28;20037;-73
2022/01/31 03:57:55;;;;;;;25.20;11.23;;;;;;;-1.62;67.79;96833.47;4999635;28;20056;-73
2022/01/31 04:00:30;;;;;;;28.33;11.00;;;;;;;-1.59;67.81;96834.81;5008153;28;20105;-74
2022/01/31 04:02:56;;;;;;;36.60;12.13;;;;;;;-1.63;67.84;96836.41;5020211;28;20049;-73
2022/01/31 04:05:22;;;;;;;29.37;11.30;;;;;;;-1.59;67.72;96837.47;5010299;28;20042;-72
2022/01/31 04:07:48;;;;;;;25.33;10.87;;;;;;;-1.54;67.72;96839.38;5025392;28;20046;-73
2022/01/31 04:10:14;;;;;;;29.20;10.47;;;;;;;-1.53;67.68;96838.28;5013433;28;20125;-81
2022/01/31 04:12:40;;;;;;;27.30;11.23;;;;;;;-1.57;67.87;96827.28;5018336;28;20044;-80
2022/01/31 04:15:09;;;;;;;33.13;12.37;;;;;;;-1.53;67.63;96831.03;5034498;28;20103;-77
2022/01/31 04:17:37;;;;;;;27.83;12.23;;;;;;;-1.48;67.84;96835.59;5026149;28;20096;-78
2022/01/31 04:20:05;;;;;;;25.37;11.63;;;;;;;-1.48;67.76;96831.06;5026232;28;20038;-78
2022/01/31 04:22:34;;;;;;;28.50;11.77;;;;;;;-1.50;67.83;96822.47;5009942;28;20123;-78
2022/01/31 04:25:03;;;;;;;27.37;12.30;;;;;;;-1.48;67.88;96827.56;5044275;28;20050;-78
2022/01/31 04:27:33;;;;;;;30.23;11.53;;;;;;;-1.49;67.94;96816.03;5035186;28;20046;-78
2022/01/31 04:29:59;;;;;;;26.17;11.33;;;;;;;-1.50;67.83;96816.31;5022326;28;20049;-77
2022/01/31 04:32:27;;;;;;;24.37;11.20;;;;;;;-1.46;67.98;96820.06;5009716;28;20050;-78
2022/01/31 04:34:53;;;;;;;25.05;11.20;;;;;;;-1.45;67.74;96813.63;5020805;28;20053;-78
2022/01/31 04:37:19;;;;;;;28.03;11.70;;;;;;;-1.51;67.84;96809.34;5036762;28;20486;-72
2022/01/31 04:39:45;;;;;;;29.13;11.30;;;;;;;-1.49;67.86;96815.22;5038720;28;20099;-71
2022/01/31 04:42:12;;;;;;;36.33;11.97;;;;;;;-1.66;68.12;96813.63;5029045;28;20513;-71
2022/01/31 04:44:38;;;;;;;27.90;11.83;;;;;;;-1.58;68.08;96823.00;5017120;28;20419;-69
2022/01/31 04:47:05;;;;;;;30.20;11.93;;;;;;;-1.52;68.11;96831.84;5022322;28;20449;-71
2022/01/31 04:49:35;;;;;;;24.60;10.75;;;;;;;-1.51;68.08;96828.09;5023830;28;20053;-72
2022/01/31 04:52:01;;;;;;;24.10;10.90;;;;;;;-1.47;67.88;96834.53;5025253;28;20128;-70
2022/01/31 04:54:27;;;;;;;29.07;12.27;;;;;;;-1.57;68.10;96825.41;5024622;28;20052;-72
2022/01/31 04:56:53;;;;;;;25.77;12.20;;;;;;;-1.65;68.29;96822.47;5036694;28;20055;-72
2022/01/31 04:59:19;;;;;;;29.00;11.50;;;;;;;-1.60;68.29;96825.16;5028646;28;20053;-71
2022/01/31 05:01:48;;;;;;;27.00;11.67;;;;;;;-1.53;68.17;96824.91;5019918;28;20108;-69
2022/01/31 05:04:14;;;;;;;23.97;11.03;;;;;;;-1.56;68.24;96831.59;5018399;28;20398;-72
2022/01/31 05:06:44;;;;;;;29.97;11.47;;;;;;;-1.49;68.00;96831.31;5031645;28;20605;-75
2022/01/31 05:09:11;;;;;;;25.33;11.80;;;;;;;-1.53;68.09;96825.69;5031308;28;20506;-76
2022/01/31 05:11:37;;;;;;;35.45;12.77;;;;;;;-1.49;68.12;96829.41;5024089;28;20076;-72
2022/01/31 05:14:03;;;;;;;26.83;12.07;;;;;;;-1.42;67.87;96831.84;5018774;28;20045;-80
2022/01/31 05:16:29;;;;;;;30.13;12.50;;;;;;;-1.46;67.62;96820.88;5028241;28;20087;-80
2022/01/31 05:18:55;;;;;;;30.27;11.87;;;;;;;-1.34;67.54;96835.84;5043372;28;20137;-79
2022/01/31 05:21:24;;;;;;;33.07;13.43;;;;;;;-1.34;67.53;96825.94;5032105;28;20060;-80
2022/01/31 05:23:52;;;;;;;28.23;12.70;;;;;;;-1.31;67.23;96833.44;5046431;28;20134;-79
2022/01/31 05:26:18;;;;;;;27.65;12.10;;;;;;;-1.31;67.46;96836.13;5015031;28;20482;-80
2022/01/31 05:28:44;;;;;;;30.17;12.60;;;;;;;-1.37;67.35;96828.34;5016819;28;20042;-81
2022/01/31 05:31:10;;;;;;;32.37;12.37;;;;;;;-1.35;67.57;96829.69;5029290;28;20061;-79
2022/01/31 05:33:36;;;;;;;28.30;12.50;;;;;;;-1.35;67.59;96842.28;5025636;28;20507;-79
2022/01/31 05:36:02;;;;;;;29.07;12.17;;;;;;;-1.32;67.44;96844.44;5032699;28;20054;-78
2022/01/31 05:38:33;;;;;;;33.93;12.33;;;;;;;-1.32;67.39;96844.44;5027298;28;20072;-72
2022/01/31 05:41:05;;;;;;;26.93;11.70;;;;;;;-1.31;67.42;96857.56;5013699;28;20418;-72
2022/01/31 05:43:31;;;;;;;26.93;11.73;;;;;;;-1.29;67.53;96849.25;5025705;28;20391;-78
2022/01/31 05:45:57;;;;;;;25.73;11.27;;;;;;;-1.34;67.40;96838.53;5009714;28;20148;-78
2022/01/31 05:48:23;;;;;;;26.87;11.27;;;;;;;-1.38;67.59;96835.59;5042634;28;20042;-78
2022/01/31 05:50:49;;;;;;;28.77;11.33;;;;;;;-1.35;67.47;96845.78;5002421;28;20053;-77
2022/01/31 05:53:16;;;;;;;28.27;11.97;;;;;;;-1.38;67.72;96835.59;5031980;28;20045;-77
2022/01/31 05:55:45;;;;;;;30.47;11.83;;;;;;;-1.33;67.54;96853.53;5020784;28;20046;-79
2022/01/31 05:58:13;;;;;;;29.87;11.63;;;;;;;-1.29;67.69;96841.22;5015263;28;20046;-79
2022/01/31 06:00:39;;;;;;;30.37;13.07;;;;;;;-1.31;67.81;96846.84;5023105;28;20549;-70
2022/01/31 06:03:08;;;;;;;29.90;12.47;;;;;;;-1.29;67.90;96843.91;5016437;28;20140;-71
2022/01/31 06:05:34;;;;;;;27.23;11.80;;;;;;;-1.24;67.70;96851.16;5024317;28;20046;-71
2022/01/31 06:08:00;;;;;;;31.43;12.63;;;;;;;-1.30;67.98;96845.75;5025696;28;20049;-69
2022/01/31 06:10:27;;;;;;;29.53;12.23;;;;;;;-1.27;67.90;96851.66;5025881;28;20132;-70
2022/01/31 06:12:55;;;;;;;31.90;12.47;;;;;;;-1.27;68.04;96839.06;5030502;28;20144;-71
2022/01/31 06:15:23;;;;;;;27.27;12.53;;;;;;;-1.27;68.05;96836.38;5020746;28;20057;-70
2022/01/31 06:17:49;;;;;;;30.70;13.60;;;;;;;-1.22;68.27;96846.31;5022748;28;20045;-71
2022/01/31 06:20:15;;;;;;;31.07;12.17;;;;;;;-1.23;68.07;96842.81;5016847;28;20461;-69
2022/01/31 06:22:50;;;;;;;34.80;12.77;;;;;;;-1.20;68.07;96839.59;5007420;28;20045;-70
2022/01/31 06:25:17;;;;;;;40.30;13.37;;;;;;;-1.27;68.14;96831.03;5026951;28;20050;-70
2022/01/31 06:27:45;;;;;;;36.43;14.87;;;;;;;-1.20;68.00;96836.13;5006465;28;20049;-70
2022/01/31 06:30:11;;;;;;;31.70;12.93;;;;;;;-1.23;68.29;96839.34;5019452;28;20053;-69
2022/01/31 06:32:39;;;;;;;33.30;13.47;;;;;;;-1.30;68.55;96840.41;5033656;28;20430;-70
2022/01/31 06:35:05;;;;;;;;;;;;;;;-1.27;68.66;96830.22;5022948;28;20087;-71
2022/01/31 06:37:31;;;;;;;41.30;14.90;;;;;;;-1.26;68.62;96831.81;5019114;28;19929;-71
2022/01/31 06:39:58;;;;;;;40.93;15.57;;;;;;;-1.35;69.06;96824.34;5017689;28;20050;-70
2022/01/31 06:42:25;;;;;;;42.22;15.43;;;;;;;-1.29;68.82;96828.59;4995107;28;20079;-70
2022/01/31 06:44:51;;;;;;;46.07;16.13;;;;;;;-1.25;69.16;96822.69;5019110;28;20060;-70
2022/01/31 06:47:19;;;;;;;39.60;15.70;;;;;;;-1.23;69.02;96820.56;5023769;28;20391;-69
2022/01/31 06:49:46;;;;;;;44.00;16.10;;;;;;;-1.20;69.10;96822.72;5015175;28;20048;-70
2022/01/31 06:52:12;;;;;;;45.67;16.23;;;;;;;-1.16;69.22;96813.84;5014287;28;20076;-71
2022/01/31 06:54:38;;;;;;;39.60;14.67;;;;;;;-1.15;69.04;96820.81;5010076;28;20042;-71
2022/01/31 06:57:06;;;;;;;37.57;15.63;;;;;;;-1.12;69.31;96822.13;5016187;28;20058;-69
2022/01/31 06:59:32;;;;;;;43.57;15.47;;;;;;;-1.11;69.31;96825.63;5010475;28;20096;-71
2022/01/31 07:01:58;;;;;;;43.63;16.13;;;;;;;-1.15;69.39;96818.13;5016735;28;20046;-70
2022/01/31 07:04:24;;;;;;;41.70;16.47;;;;;;;-1.11;69.37;96813.00;5025215;28;20041;-70
2022/01/31 07:06:52;;;;;;;52.60;16.07;;;;;;;-1.11;69.47;96826.44;5021439;28;20042;-70
2022/01/31 07:09:18;;;;;;;40.67;16.60;;;;;;;-1.12;69.54;96816.78;5019127;28;20053;-70
2022/01/31 07:11:44;;;;;;;49.93;16.87;;;;;;;-1.19;69.78;96824.31;5013710;28;20041;-70
2022/01/31 07:14:30;;;;;;;46.83;16.60;;;;;;;-1.20;69.92;96818.13;5024210;28;20077;-70
2022/01/31 07:16:56;;;;;;;41.27;15.43;;;;;;;-1.20;70.13;96828.06;5015433;28;20056;-70
2022/01/31 07:19:26;;;;;;;51.00;16.67;;;;;;;-1.16;70.03;96827.25;5015115;28;20100;-71
2022/01/31 07:21:54;;;;;;;46.27;16.60;;;;;;;-1.12;70.01;96830.19;5021580;28;20713;-72
2022/01/31 07:27:18;;;;;;;39.00;15.50;;;;;;;-1.07;69.94;96832.88;4989214;28;20460;-72
2022/01/31 07:29:45;;;;;;;42.20;14.93;;;;;;;-1.09;69.93;96829.66;5017725;28;20119;-69
2022/01/31 07:32:13;;;;;;;43.20;16.17;;;;;;;-1.11;70.25;96822.94;5022816;28;20049;-70
2022/01/31 07:34:40;;;;;;;51.10;16.52;;;;;;;-1.08;70.10;96831.28;5015730;28;20410;-70
2022/01/31 07:37:09;;;;;;;45.77;16.53;;;;;;;-1.26;70.38;96796.97;5023689;28;20417;-70
2022/01/31 07:39:35;;;;;;;40.33;15.57;;;;;;;-1.08;70.27;96828.59;5013109;28;20295;-71
2022/01/31 07:42:01;;;;;;;46.37;17.43;;;;;;;-1.07;70.28;96826.69;5029363;28;20381;-71
2022/01/31 07:44:28;;;;;;;43.90;16.57;;;;;;;-1.13;70.43;96819.75;5023334;28;20145;-71
2022/01/31 07:46:54;;;;;;;48.07;17.30;;;;;;;-1.02;70.34;96827.50;5026941;28;20073;-71
2022/01/31 07:49:22;;;;;;;44.33;16.60;;;;;;;-1.00;70.32;96833.38;5024399;28;20069;-70
2022/01/31 07:51:47;;;;;;;;;;;;;;;-0.92;70.35;96821.28;5011439;28;20413;-70
2022/01/31 07:54:16;;;;;;;42.13;17.00;;;;;;;-0.91;70.22;96832.84;5031098;28;20028;-71
2022/01/31 07:56:43;;;;;;;51.90;16.53;;;;;;;-0.89;70.03;96826.09;5031916;28;20042;-70
2022/01/31 07:59:10;;;;;;;44.97;16.27;;;;;;;-0.88;70.15;96822.34;5022349;28;20046;-78
2022/01/31 08:01:35;;;;;;;46.40;16.70;;;;;;;-0.81;70.09;96826.63;5017320;28;20073;-78
2022/01/31 08:04:02;;;;;;;49.07;17.27;;;;;;;-0.74;70.01;96833.31;5023399;28;20503;-79
2022/01/31 08:06:28;;;;;;;50.43;16.90;;;;;;;-0.71;69.90;96821.22;5039099;28;20049;-78
2022/01/31 08:08:54;;;;;;;49.27;16.33;;;;;;;-0.66;69.78;96833.81;5018342;28;20477;-78
2022/01/31 08:11:30;;;;;;;43.43;17.43;;;;;;;-0.65;70.01;96838.91;5013249;28;20054;-78
2022/01/31 08:14:00;;;;;;;44.53;17.90;;;;;;;-0.62;69.61;96840.25;5015679;28;20136;-78
2022/01/31 08:16:27;;;;;;;54.63;18.67;;;;;;;-0.63;69.60;96842.13;4999993;28;20450;-77
2022/01/31 08:18:54;;;;;;;51.80;17.00;;;;;;;-0.70;69.49;96830.91;5019386;28;20145;-75
2022/01/31 08:21:20;;;;;;;48.83;17.30;;;;;;;-0.61;69.51;96841.88;5017336;28;20053;-76
2022/01/31 08:23:47;;;;;;;58.00;18.90;;;;;;;-0.60;69.39;96843.47;5023393;28;20081;-75
2022/01/31 08:26:16;;;;;;;42.80;16.67;;;;;;;-0.57;69.45;96837.53;5003737;28;20048;-76
2022/01/31 08:28:57;;;;;;;45.63;17.50;;;;;;;-0.52;69.27;96834.03;5008569;28;20073;-77
2022/01/31 08:31:35;;;;;;;46.37;17.23;;;;;;;-0.55;69.23;96824.66;5032576;28;20528;-75
2022/01/31 08:34:07;;;;;;;55.20;18.50;;;;;;;-0.52;68.95;96832.16;5032014;28;20052;-77
2022/01/31 08:36:34;;;;;;;55.93;19.53;;;;;;;-0.57;69.24;96829.50;5036808;28;20064;-77
2022/01/31 08:39:01;;;;;;;48.83;18.33;;;;;;;-0.74;69.30;96808.34;5026653;28;20049;-77
2022/01/31 08:41:28;;;;;;;51.28;18.58;;;;;;;-0.68;69.66;96817.19;5011809;28;20045;-77
2022/01/31 08:43:55;;;;;;;47.33;18.70;;;;;;;-0.63;69.46;96836.75;5017468;28;20083;-76
2022/01/31 08:46:22;;;;;;;51.92;17.80;;;;;;;-0.60;69.48;96838.09;5025699;28;20049;-77
2022/01/31 08:48:49;;;;;;;45.22;18.40;;;;;;;-0.59;69.50;96828.97;5025414;28;20066;-77
2022/01/31 08:51:15;;;;;;;47.47;17.83;;;;;;;-0.58;69.41;96822.53;5016585;28;20065;-77
2022/01/31 08:53:41;;;;;;;55.23;18.47;;;;;;;-0.61;69.62;96829.22;5052977;28;20095;-77
2022/01/31 08:56:09;;;;;;;59.83;19.03;;;;;;;-0.67;69.77;96824.97;5031686;28;20567;-76
2022/01/31 08:58:41;;;;;;;60.30;20.60;;;;;;;-0.65;69.67;96813.94;5025837;28;20050;-77
2022/01/31 09:01:11;;;;;;;65.73;20.10;;;;;;;-0.69;69.92;96829.00;5014649;28;20065;-77
2022/01/31 09:06:04;;;;;;;56.10;18.70;;;;;;;-0.68;70.15;96819.88;5022413;28;20080;-74
2022/01/31 09:08:30;;;;;;;62.95;19.70;;;;;;;-0.66;70.29;96815.84;5046493;28;20549;-75
2022/01/31 09:10:57;;;;;;;59.30;20.63;;;;;;;-0.63;70.09;96817.97;5013528;28;20049;-75
2022/01/31 09:13:23;;;;;;;55.50;19.90;;;;;;;-0.58;70.27;96817.16;5016762;28;20050;-75
2022/01/31 09:15:50;;;;;;;64.50;21.23;;;;;;;-0.60;70.30;96820.09;5011472;28;20131;-74
2022/01/31 09:18:17;;;;;;;59.22;20.40;;;;;;;-0.55;70.35;96816.59;5012576;28;20050;-74
2022/01/31 09:20:44;;;;;;;52.95;18.88;;;;;;;-0.52;70.17;96823.31;5012757;28;20152;-74
2022/01/31 09:23:10;;;;;;;61.17;19.67;;;;;;;-0.54;70.09;96814.72;5012688;28;20046;-74
2022/01/31 09:25:43;;;;;;;56.77;19.30;;;;;;;-0.50;70.30;96819.25;5015471;28;20041;-75
2022/01/31 09:28:10;;;;;;;66.90;21.20;;;;;;;-0.52;70.26;96801.84;5002702;28;20034;-74
2022/01/31 09:30:37;;;;;;;63.67;20.05;;;;;;;-0.46;70.15;96801.53;5012540;28;20099;-75
2022/01/31 09:33:03;;;;;;;58.00;20.27;;;;;;;-0.42;70.12;96809.81;5011522;28;20524;-75
2022/01/31 09:35:33;;;;;;;58.97;19.87;;;;;;;-0.41;70.10;96821.38;5012233;28;20046;-75
2022/01/31 09:38:00;;;;;;;58.57;20.33;;;;;;;-0.45;70.18;96802.31;5016591;28;20061;-75
2022/01/31 09:40:26;;;;;;;58.23;20.47;;;;;;;-0.40;69.87;96806.88;5013615;28;20049;-75
2022/01/31 09:43:25;;;;;;;52.83;18.92;;;;;;;-0.37;70.00;96809.81;5026567;28;20045;-75
2022/01/31 09:46:03;;;;;;;64.60;20.90;;;;;;;-0.36;69.85;96803.34;5027361;28;20073;-75
2022/01/31 09:48:38;;;;;;;52.90;19.43;;;;;;;-0.27;69.96;96818.88;5012301;28;20192;-74
2022/01/31 09:51:08;;;;;;;59.90;20.42;;;;;;;-0.25;69.92;96824.75;4983585;28;20049;-74
2022/01/31 09:53:37;;;;;;;53.90;20.75;;;;;;;-0.19;69.73;96818.31;5024721;28;20551;-74
2022/01/31 09:56:04;;;;;;;51.30;20.25;;;;;;;-0.24;69.79;96807.56;5029977;28;20095;-74
2022/01/31 09:58:31;;;;;;;51.47;19.40;;;;;;;-0.06;69.53;96824.94;5027309;28;20041;-74
2022/01/31 10:01:05;;;;;;;53.65;19.83;;;;;;;-0.08;69.45;96805.59;5029080;28;20051;-74
2022/01/31 10:03:32;;;;;;;53.88;20.55;;;;;;;0.03;69.18;96817.09;5030401;28;20509;-74
2022/01/31 10:05:58;;;;;;;53.58;20.13;;;;;;;0.07;69.32;96815.44;5025530;28;20049;-74
2022/01/31 10:08:31;;;;;;;62.92;21.55;;;;;;;0.05;69.04;96807.66;5030051;28;20057;-76
2022/01/31 10:11:02;;;;;;;53.17;19.70;;;;;;;0.06;69.15;96809.28;5024195;28;20071;-74
2022/01/31 10:16:28;;;;;;;56.55;20.27;;;;;;;-0.08;69.32;96795.69;5030434;28;20037;-74
2022/01/31 10:19:06;;;;;;;54.70;20.17;;;;;;;-0.01;69.23;96800.72;5028940;28;20057;-73
2022/01/31 10:21:51;;;;;;;59.88;21.63;;;;;;;-0.02;69.23;96804.47;5013713;28;20046;-73
2022/01/31 10:24:19;;;;;;;51.20;20.65;;;;;;;-0.07;69.10;96796.47;5011581;28;20054;-74
2022/01/31 10:26:46;;;;;;;59.05;21.40;;;;;;;-0.02;69.18;96801.78;5005459;28;20053;-76
2022/01/31 10:29:14;;;;;;;56.70;21.25;;;;;;;-0.05;69.41;96803.16;5018292;28;20490;-74
2022/01/31 10:31:54;;;;;;;50.88;19.63;;;;;;;-0.03;69.51;96805.56;5025714;28;20048;-74
2022/01/31 10:34:23;;;;;;;54.95;19.90;;;;;;;-0.01;69.54;96793.47;5043023;28;20049;-72
2022/01/31 10:36:50;;;;;;;53.85;20.45;;;;;;;-0.03;69.28;96790.25;5015308;28;20049;-74
2022/01/31 10:53:16;;;;;;;47.95;18.77;;;;;;;0.16;69.10;96805.72;5037934;28;20042;-74
2022/01/31 10:55:53;;;;;;;49.72;19.13;;;;;;;0.17;69.18;96801.94;5025560;28;20455;-75
2022/01/31 10:58:21;;;;;;;53.97;19.92;;;;;;;0.19;68.97;96794.38;5028439;28;20053;-74
2022/01/31 11:00:47;;;;;;;53.40;19.73;;;;;;;0.24;69.05;96793.56;5030835;28;20054;-74
2022/01/31 11:03:29;;;;;;;47.13;18.60;;;;;;;0.10;68.94;96764.63;5023569;28;20049;-69
2022/01/31 11:05:55;;;;;;;47.90;18.85;;;;;;;0.26;69.04;96780.63;5016567;28;20100;-69
2022/01/31 11:08:21;;;;;;;45.15;18.73;;;;;;;0.27;69.03;96783.06;5017675;28;20084;-67
2022/01/31 11:10:47;;;;;;;47.22;18.17;;;;;;;0.21;68.94;96767.25;5013258;28;20572;-68
2022/01/31 11:13:16;;;;;;;52.22;19.83;;;;;;;0.25;68.96;96782.53;5023730;28;20409;-67
2022/01/31 11:15:44;;;;;;;42.90;18.05;;;;;;;0.27;69.01;96785.75;5010752;28;20144;-66
2022/01/31 11:18:12;;;;;;;48.17;20.10;;;;;;;0.28;68.97;96783.84;5013105;28;20077;-68
2022/01/31 11:20:44;;;;;;;;;;;;;;;0.20;69.22;96779.09;5030401;28;20068;-68
2022/01/31 11:23:11;;;;;;;40.65;17.15;;;;;;;0.25;68.98;96779.03;5023058;28;19925;-67
2022/01/31 11:25:40;;;;;;;46.58;18.98;;;;;;;0.26;69.02;96786.00;5020011;28;20071;-67
2022/01/31 11:28:13;;;;;;;46.17;18.55;;;;;;;0.19;69.18;96766.72;5015567;28;20145;-66
2022/01/31 11:30:41;;;;;;;43.13;18.52;;;;;;;0.23;69.28;96778.50;5023928;28;20049;-66
2022/01/31 11:33:10;;;;;;;45.08;17.92;;;;;;;0.24;69.29;96783.63;5027163;28;20917;-68
2022/01/31 11:35:37;;;;;;;45.80;19.00;;;;;;;0.28;69.28;96778.47;5017376;28;20046;-69
2022/01/31 11:38:03;;;;;;;47.60;19.15;;;;;;;0.26;69.38;96783.31;5021928;28;20084;-68
2022/01/31 11:40:30;;;;;;;52.45;19.85;;;;;;;0.20;69.41;96779.88;5025919;28;20057;-68
2022/01/31 11:42:56;;;;;;;53.13;20.25;;;;;;;0.24;69.56;96783.63;5022133;28;20050;-68
2022/01/31 11:45:27;;;;;;;47.20;19.58;;;;;;;0.24;69.38;96780.94;5033869;28;20413;-68
2022/01/31 11:47:57;;;;;;;43.72;19.52;;;;;;;0.23;69.42;96789.25;5013417;28;20484;-67
2022/01/31 11:50:27;;;;;;;44.05;19.67;;;;;;;0.23;69.62;96791.94;5027278;28;20042;-67
2022/01/31 11:52:57;;;;;;;44.58;18.63;;;;;;;0.16;69.76;96786.91;5018888;28;20044;-68